Time;durP1;ratioP1;P1;durP2;ratioP2;P2;SDS_P1;SDS_P2;PMS_P1;PMS_P2;Temp;Humidity;BMP_temperature;BMP_pressure;BME280_temperature;BME280_humidity;BME280_pressure;Samples;Min_cycle;Max_cycle;Signal;HPM_P1;HPM_P2
2022/08/23 00:01:52;;;;;;;;;0.75;0.75;;;;;23.02;57.26;100788.81;5096995;27;45377;-67
2022/08/23 00:04:33;;;;;;;;;0.75;0.75;;;;;23.02;57.45;100790.69;5096904;27;45455;-63
2022/08/23 00:07:00;;;;;;;;;0.00;0.00;;;;;22.90;57.27;100774.69;5097131;27;45346;-65
2022/08/23 00:09:27;;;;;;;;;1.00;1.00;;;;;22.99;57.30;100786.44;5078754;27;47961;-65
2022/08/23 00:12:07;;;;;;;;;1.00;1.00;;;;;22.97;57.35;100799.31;5096979;27;45355;-60
2022/08/23 00:14:35;;;;;;;;;1.75;0.50;;;;;22.94;57.66;100784.22;5093856;27;45238;-65
2022/08/23 00:17:01;;;;;;;;;1.00;1.00;;;;;22.93;57.20;100787.94;5076593;28;45605;-62
2022/08/23 00:19:26;;;;;;;;;2.50;0.00;;;;;22.78;57.56;100762.38;5076744;28;45432;-62
2022/08/23 00:21:55;;;;;;;;;0.00;0.00;;;;;22.83;57.66;100768.22;5076658;27;45425;-62
2022/08/23 00:24:23;;;;;;;;;0.75;0.75;;;;;22.86;57.59;100778.72;5076417;28;45334;-65
2022/08/23 00:26:51;;;;;;;;;0.50;0.50;;;;;22.93;57.68;100784.38;5076643;28;45616;-60
2022/08/23 00:29:17;;;;;;;;;0.00;0.00;;;;;22.91;57.87;100773.66;5076188;28;45550;-61
2022/08/23 00:31:43;;;;;;;;;2.00;2.00;;;;;22.99;57.30;100782.88;5076917;28;45469;-62
2022/08/23 00:34:08;;;;;;;;;2.00;2.00;;;;;23.02;57.78;100786.09;5075857;28;45424;-62
2022/08/23 00:36:33;;;;;;;;;0.00;0.00;;;;;23.03;57.85;100773.38;5076593;28;45465;-62
2022/08/23 00:39:00;;;;;;;;;1.00;1.00;;;;;23.03;57.90;100781.53;5076553;28;45609;-61
2022/08/23 00:41:26;;;;;;;;;1.00;1.00;;;;;22.99;57.46;100770.16;5076476;27;45380;-61
2022/08/23 00:49:36;;;;;;;;;0.00;0.00;;;;;23.06;57.78;100773.94;5076060;27;45262;-70
2022/08/23 00:52:01;;;;;;;;;1.00;0.00;;;;;23.09;57.24;100775.47;5076200;28;45342;-62
2022/08/23 00:54:29;;;;;;;;;1.25;1.25;;;;;23.10;57.45;100778.00;5076370;28;45227;-68
2022/08/23 00:56:57;;;;;;;;;1.00;1.00;;;;;23.10;57.74;100785.31;5079510;28;45575;-66
2022/08/23 00:59:23;;;;;;;;;1.00;1.00;;;;;23.10;57.71;100778.00;5076866;28;46507;-68
2022/08/23 01:01:49;;;;;;;;;0.50;0.50;;;;;23.07;57.26;100778.34;5075943;27;45358;-64
2022/08/23 01:04:16;;;;;;;;;1.00;1.00;;;;;23.08;57.48;100779.19;5076218;28;45393;-61
2022/08/23 01:06:49;;;;;;;;;0.50;0.50;;;;;23.07;57.52;100789.19;5076065;28;45193;-62
2022/08/23 01:09:18;;;;;;;;;0.00;0.00;;;;;23.06;57.79;100786.66;5074639;28;46445;-60
2022/08/23 01:11:56;;;;;;;;;1.00;1.00;;;;;23.05;57.63;100784.91;5075747;28;45270;-63
2022/08/23 01:14:35;;;;;;;;;1.00;1.00;;;;;23.01;57.16;100781.69;5077484;27;45362;-63
2022/08/23 01:17:17;;;;;;;;;0.00;0.00;;;;;23.04;57.69;100785.94;5096756;27;45319;-61
2022/08/23 01:19:53;;;;;;;;;1.00;1.00;;;;;23.05;57.35;100793.06;5096217;27;46351;-63
2022/08/23 01:22:51;;;;;;;;;0.75;0.75;;;;;23.02;58.06;100787.97;5096326;27;45208;-62
2022/08/23 01:25:20;;;;;;;;;2.00;0.00;;;;;23.01;58.10;100791.69;5085797;27;45164;-60
2022/08/23 01:27:47;;;;;;;;;1.00;1.00;;;;;22.98;58.02;100790.16;5090316;27;45709;-67
2022/08/23 01:30:14;;;;;;;;;1.00;1.00;;;;;23.00;58.00;100790.00;5077901;27;47150;-63
2022/08/23 01:32:46;;;;;;;;;1.00;1.00;;;;;22.94;57.92;100789.63;5077697;27;45235;-64
2022/08/23 01:35:13;;;;;;;;;0.00;0.00;;;;;22.96;58.03;100784.06;5088071;27;45264;-66
2022/08/23 01:37:38;;;;;;;;;0.00;0.00;;;;;22.99;57.58;100793.72;5075948;27;45482;-68
2022/08/23 01:40:05;;;;;;;;;1.00;1.00;;;;;22.98;58.02;100794.72;5075375;27;45394;-63
2022/08/23 01:42:30;;;;;;;;;0.00;0.00;;;;;22.98;58.10;100794.72;5075825;28;45260;-65
2022/08/23 01:44:55;;;;;;;;;0.00;0.00;;;;;22.93;58.21;100787.09;5076586;27;45283;-62
2022/08/23 01:47:21;;;;;;;;;0.75;0.75;;;;;22.84;58.21;100783.47;5099724;27;45203;-69
2022/08/23 01:49:46;;;;;;;;;2.00;0.00;;;;;22.84;58.28;100775.34;5080490;27;46048;-66
2022/08/23 01:52:12;;;;;;;;;1.00;1.00;;;;;22.86;58.45;100784.16;5099414;27;45443;-63
2022/08/23 01:54:38;;;;;;;;;1.00;1.00;;;;;22.83;58.25;100789.91;5099196;27;45345;-63
2022/08/23 01:57:05;;;;;;;;;0.50;0.50;;;;;22.82;58.96;100790.88;5099824;27;45429;-60
2022/08/23 01:59:30;;;;;;;;;0.50;0.50;;;;;22.76;58.95;100786.09;5099366;27;45441;-60
2022/08/23 02:01:56;;;;;;;;;2.50;1.00;;;;;22.79;58.58;100790.38;5081546;27;45331;-65
2022/08/23 02:04:21;;;;;;;;;1.00;1.00;;;;;22.78;58.71;100791.34;5078745;28;45381;-63
2022/08/23 02:06:47;;;;;;;;;0.00;0.00;;;;;22.77;59.01;100797.78;5079064;28;45464;-61
2022/08/23 02:09:12;;;;;;;;;0.50;0.50;;;;;22.73;59.29;100788.28;5078318;28;45697;-62
2022/08/23 02:11:41;;;;;;;;;0.00;0.00;;;;;22.67;59.13;100792.50;5078523;28;45314;-60
2022/08/23 02:14:11;;;;;;;;;2.25;0.75;;;;;22.62;59.22;100794.81;5078702;27;45223;-63
2022/08/23 02:16:44;;;;;;;;;0.75;0.75;;;;;22.61;59.40;100793.97;5060439;28;45392;-61
2022/08/23 02:19:12;;;;;;;;;0.25;0.00;;;;;22.60;59.05;100802.25;5078486;28;45446;-63
2022/08/23 02:21:39;;;;;;;;;0.00;0.00;;;;;22.59;59.76;100792.44;5078536;27;45270;-63
2022/08/23 02:24:10;;;;;;;;;2.00;0.25;;;;;22.52;59.22;100783.22;5079595;28;45397;-62
2022/08/23 02:26:44;;;;;;;;;1.00;0.00;;;;;22.59;59.67;100795.13;5079395;28;45530;-61
2022/08/23 02:29:10;;;;;;;;;0.00;0.00;;;;;22.51;59.45;100786.94;5078131;28;46197;-63
2022/08/23 02:31:36;;;;;;;;;1.25;0.00;;;;;22.54;59.92;100800.19;5078446;28;45417;-63
2022/08/23 02:34:02;;;;;;;;;1.00;1.00;;;;;22.56;59.92;100806.31;5078936;27;45762;-65
2022/08/23 02:36:27;;;;;;;;;0.75;0.75;;;;;22.55;59.57;100794.63;5099135;27;45568;-62
2022/08/23 02:38:54;;;;;;;;;1.00;1.00;;;;;22.46;59.64;100784.72;5080917;27;46088;-67
2022/08/23 02:41:20;;;;;;;;;0.00;0.00;;;;;22.61;59.41;100809.38;5099547;27;45951;-65
2022/08/23 02:43:45;;;;;;;;;2.00;1.00;;;;;22.59;59.54;100797.84;5098654;27;45381;-66
2022/08/23 02:46:11;;;;;;;;;0.00;0.00;;;;;22.52;59.69;100794.06;5098526;27;45405;-67
2022/08/23 02:48:37;;;;;;;;;1.00;0.00;;;;;22.59;59.57;100800.56;5098835;27;46147;-66
2022/08/23 02:51:05;;;;;;;;;0.00;0.00;;;;;22.60;59.90;100799.53;5098199;27;45441;-65
2022/08/23 02:53:32;;;;;;;;;1.00;1.00;;;;;22.61;59.48;100806.66;5098420;27;45341;-64
2022/08/23 02:55:58;;;;;;;;;1.00;1.00;;;;;22.63;60.17;100808.19;5097711;27;45554;-67
2022/08/23 02:58:24;;;;;;;;;0.00;0.00;;;;;22.64;59.68;100798.22;5097921;27;47144;-67
2022/08/23 03:00:50;;;;;;;;;0.00;0.00;;;;;22.60;59.94;100803.09;5098235;27;45471;-67
2022/08/23 03:03:16;;;;;;;;;0.75;0.00;;;;;22.56;59.64;100800.88;5098164;27;45346;-65
2022/08/23 03:05:42;;;;;;;;;0.00;0.00;;;;;22.58;59.92;100804.28;5098392;27;45261;-68
2022/08/23 03:08:08;;;;;;;;;1.00;1.00;;;;;22.58;60.01;100798.84;5098199;27;46392;-62
2022/08/23 03:10:34;;;;;;;;;0.00;0.00;;;;;22.60;60.21;100802.25;5097494;27;45412;-66
2022/08/23 03:13:01;;;;;;;;;0.25;0.25;;;;;22.59;60.40;100811.41;5098103;27;45399;-62
2022/08/23 03:15:26;;;;;;;;;0.00;0.00;;;;;22.58;59.94;100809.69;5098066;27;45461;-65
2022/08/23 03:17:52;;;;;;;;;1.00;1.00;;;;;22.64;60.18;100811.75;5097867;27;46112;-65
2022/08/23 03:20:18;;;;;;;;;0.75;0.75;;;;;22.64;59.90;100809.91;5097963;27;45360;-64
2022/08/23 03:22:43;;;;;;;;;2.00;1.00;;;;;22.62;59.98;100811.06;5097991;27;45283;-65
2022/08/23 03:25:09;;;;;;;;;0.00;0.00;;;;;22.64;60.42;100815.31;5098268;27;45561;-67
2022/08/23 03:27:34;;;;;;;;;1.00;1.00;;;;;22.66;59.97;100817.91;5096958;27;46063;-68
2022/08/23 03:30:00;;;;;;;;;0.00;0.00;;;;;22.66;59.80;100817.91;5097533;27;45368;-62
2022/08/23 03:32:26;;;;;;;;;0.00;0.00;;;;;22.60;59.93;100803.09;5097950;27;45381;-63
2022/08/23 03:34:52;;;;;;;;;0.00;0.00;;;;;22.57;60.16;100802.59;5079498;27;45290;-67
2022/08/23 03:37:18;;;;;;;;;2.00;1.00;;;;;22.54;60.23;100803.75;5097512;27;46218;-61
2022/08/23 03:39:43;;;;;;;;;2.00;0.25;;;;;22.53;60.30;100809.34;5097535;27;45376;-62
2022/08/23 03:42:08;;;;;;;;;1.00;1.00;;;;;22.55;60.49;100810.03;5097922;27;45750;-63
2022/08/23 03:44:34;;;;;;;;;1.00;1.00;;;;;22.49;60.55;100799.78;5097615;27;45626;-68
2022/08/23 03:46:59;;;;;;;;;1.00;1.00;;;;;22.48;60.87;100806.22;5078319;27;45519;-64
2022/08/23 03:49:25;;;;;;;;;1.00;1.00;;;;;22.41;60.65;100805.19;5097188;27;45479;-67
2022/08/23 03:51:51;;;;;;;;;1.00;1.00;;;;;22.42;60.72;100813.16;5097430;27;45352;-67
2022/08/23 03:54:16;;;;;;;;;1.00;1.00;;;;;22.43;60.85;100825.69;5079234;27;45495;-67
2022/08/23 03:56:59;;;;;;;;;1.00;1.00;;;;;22.37;60.82;100827.13;5097094;27;46162;-61
2022/08/23 03:59:27;;;;;;;;;0.00;0.00;;;;;22.38;60.68;100836.97;5097061;27;45463;-63
2022/08/23 04:01:53;;;;;;;;;1.00;1.00;;;;;22.37;60.83;100843.41;5097301;27;45243;-69
2022/08/23 04:04:19;;;;;;;;;0.50;0.50;;;;;22.34;60.80;100841.00;5097731;27;45607;-64
2022/08/23 04:06:44;;;;;;;;;2.00;2.00;;;;;22.36;61.21;100844.41;5097042;27;45999;-66
2022/08/23 04:09:11;;;;;;;;;1.00;1.00;;;;;22.32;60.96;100848.44;5096579;27;45277;-67
2022/08/23 04:11:38;;;;;;;;;0.00;0.00;;;;;22.36;61.69;100848.97;5097279;27;45286;-66
2022/08/23 04:14:04;;;;;;;;;1.00;1.00;;;;;22.36;60.95;100860.66;5096999;27;45270;-68
2022/08/23 04:16:32;;;;;;;;;2.00;0.50;;;;;22.31;61.15;100846.75;5097127;27;46317;-64
2022/08/23 04:18:57;;;;;;;;;1.00;1.00;;;;;22.32;61.10;100858.44;5098878;27;45412;-69
2022/08/23 04:21:23;;;;;;;;;5.00;1.00;;;;;22.29;61.31;100854.19;5101845;27;45282;-64
2022/08/23 04:23:49;;;;;;;;;1.00;1.00;;;;;22.33;61.43;100863.69;5101759;27;45611;-64
2022/08/23 04:26:14;;;;;;;;;2.50;1.50;;;;;22.28;61.20;100852.47;5097019;27;46302;-63
2022/08/23 04:28:40;;;;;;;;;1.00;1.00;;;;;22.34;61.74;100859.97;5097131;27;45298;-67
2022/08/23 04:31:05;;;;;;;;;1.00;1.00;;;;;22.35;61.47;100864.38;5077953;27;45311;-62
2022/08/23 04:33:33;;;;;;;;;1.00;1.00;;;;;22.38;61.29;100858.66;5096953;27;45392;-61
2022/08/23 04:35:59;;;;;;;;;2.00;1.00;;;;;22.30;61.78;100845.06;5095699;27;46372;-66
2022/08/23 04:38:26;;;;;;;;;0.75;0.75;;;;;22.31;61.76;100849.47;5096430;27;45303;-61
2022/08/23 04:43:36;;;;;;;;;1.00;1.00;;;;;22.37;61.41;100862.38;5097066;27;45575;-62
2022/08/23 04:46:01;;;;;;;;;0.75;0.75;;;;;22.37;61.40;100873.22;5096493;27;46133;-62
2022/08/23 04:48:27;;;;;;;;;2.00;1.00;;;;;22.36;61.69;100876.06;5096422;27;45388;-62
2022/08/23 04:50:52;;;;;;;;;1.25;1.00;;;;;22.34;61.89;100878.09;5096432;27;45329;-60
2022/08/23 04:53:19;;;;;;;;;1.00;1.00;;;;;22.34;61.89;100872.69;5096854;27;45348;-66
2022/08/23 04:55:45;;;;;;;;;2.50;0.50;;;;;22.31;61.73;100884.69;5095531;27;45317;-63
2022/08/23 04:58:10;;;;;;;;;2.00;2.00;;;;;22.28;62.08;100878.72;5096678;27;45362;-65
2022/08/23 05:00:35;;;;;;;;;1.00;1.00;;;;;22.27;62.35;100877.88;5096411;27;45322;-66
2022/08/23 05:03:01;;;;;;;;;2.50;1.00;;;;;22.27;62.08;100877.88;5096545;27;45346;-66
2022/08/23 05:05:26;;;;;;;;;1.00;1.00;;;;;22.23;62.09;100873.75;5095962;27;46089;-65
2022/08/23 05:07:52;;;;;;;;;3.00;1.75;;;;;22.25;61.63;100879.88;5096148;27;45320;-65
2022/08/23 05:10:18;;;;;;;;;1.00;1.00;;;;;22.18;61.57;100872.53;5095066;27;45335;-65
2022/08/23 05:12:45;;;;;;;;;0.50;0.50;;;;;22.23;62.44;100886.44;5096876;27;45364;-64
2022/08/23 05:15:11;;;;;;;;;2.00;2.00;;;;;22.17;62.43;100887.06;5096354;27;46047;-68
2022/08/23 05:17:37;;;;;;;;;2.00;2.00;;;;;22.12;62.37;100876.69;5095370;27;45358;-65
2022/08/23 05:20:04;;;;;;;;;0.75;0.75;;;;;22.15;62.05;100879.13;5097909;27;45388;-66
2022/08/23 05:22:39;;;;;;;;;1.25;1.25;;;;;22.15;62.53;100889.94;5098540;27;45207;-63
2022/08/23 05:25:05;;;;;;;;;2.00;2.00;;;;;22.14;62.95;100885.53;5099004;27;46491;-61
2022/08/23 05:27:30;;;;;;;;;2.00;2.00;;;;;22.14;62.35;100885.53;5097996;27;45436;-61
2022/08/23 05:29:56;;;;;;;;;1.00;1.00;;;;;22.17;62.26;100887.94;5099734;27;45223;-61
2022/08/23 05:32:21;;;;;;;;;2.00;2.00;;;;;22.18;62.47;100891.50;5099709;27;45528;-61
2022/08/23 05:34:48;;;;;;;;;1.00;1.00;;;;;22.17;62.95;100887.06;5092613;27;45436;-61
2022/08/23 05:37:14;;;;;;;;;2.00;0.50;;;;;22.17;62.68;100887.06;5079200;28;45536;-63
2022/08/23 05:39:39;;;;;;;;;2.00;2.00;;;;;22.15;62.49;100884.53;5079208;28;45429;-65
2022/08/23 05:42:08;;;;;;;;;1.50;1.50;;;;;22.23;62.49;100897.28;5079392;28;45549;-67
2022/08/23 05:44:33;;;;;;;;;3.00;1.00;;;;;22.24;62.28;100899.84;5079028;27;45382;-67
2022/08/23 05:46:58;;;;;;;;;1.75;1.25;;;;;22.21;62.17;100886.59;5078883;27;45372;-65
2022/08/23 05:49:24;;;;;;;;;1.00;1.00;;;;;22.21;62.33;100888.47;5079479;28;45305;-63
2022/08/23 05:51:49;;;;;;;;;1.00;1.00;;;;;22.20;62.19;100893.03;5079124;27;45311;-68
2022/08/23 05:54:15;;;;;;;;;1.00;1.00;;;;;22.12;62.40;100879.41;5079144;27;46221;-67
2022/08/23 05:56:42;;;;;;;;;1.50;1.50;;;;;22.27;62.33;100899.56;5059906;28;45411;-66
2022/08/23 05:59:11;;;;;;;;;0.00;0.00;;;;;22.16;62.14;100874.53;5079200;27;45408;-67
2022/08/23 06:01:38;;;;;;;;;1.50;1.00;;;;;22.32;62.36;100901.78;5079284;27;45283;-65
2022/08/23 06:04:06;;;;;;;;;2.75;2.75;;;;;22.29;61.90;100885.84;5078519;28;46321;-67
2022/08/23 06:06:33;;;;;;;;;2.25;2.25;;;;;22.31;62.17;100894.66;5079995;28;45344;-64
2022/08/23 06:08:59;;;;;;;;;2.00;2.00;;;;;22.38;62.16;100902.00;5079819;28;45440;-64
2022/08/23 06:11:27;;;;;;;;;3.00;3.00;;;;;22.42;62.03;100904.44;5079747;28;45447;-60
2022/08/23 06:13:56;;;;;;;;;2.50;2.00;;;;;22.44;62.61;100899.72;5080856;28;46057;-62
2022/08/23 06:16:26;;;;;;;;;2.25;2.25;;;;;22.48;62.04;100911.94;5079459;28;45423;-63
2022/08/23 06:18:53;;;;;;;;;3.25;2.25;;;;;22.51;62.09;100906.19;5079060;28;45357;-62
2022/08/23 06:21:19;;;;;;;;;2.75;2.75;;;;;22.52;61.96;100907.88;5060781;28;45638;-64
2022/08/23 06:23:46;;;;;;;;;3.50;2.25;;;;;22.54;61.78;100911.31;5078482;28;45286;-66
2022/08/23 06:26:19;;;;;;;;;3.00;3.00;;;;;22.56;61.92;100915.56;5076845;27;45362;-64
2022/08/23 06:28:46;;;;;;;;;1.00;1.00;;;;;22.60;61.67;100916.09;5077017;28;45933;-65
2022/08/23 06:31:12;;;;;;;;;1.75;1.75;;;;;22.62;62.00;100916.81;5077238;28;45553;-64
2022/08/23 06:33:40;;;;;;;;;2.00;2.00;;;;;22.64;61.37;100915.63;5078036;27;45978;-63
2022/08/23 06:36:11;;;;;;;;;2.50;2.25;;;;;22.67;61.70;100917.19;5095536;27;45427;-63
2022/08/23 06:38:38;;;;;;;;;3.50;2.75;;;;;22.67;62.04;100914.50;5080192;27;45385;-61
2022/08/23 06:41:09;;;;;;;;;3.25;3.25;;;;;22.74;61.99;100922.84;5098744;27;45361;-61
2022/08/23 06:43:35;;;;;;;;;4.25;3.75;;;;;22.78;61.73;100924.22;5098160;27;45279;-62
2022/08/23 06:46:13;;;;;;;;;3.75;3.75;;;;;22.83;61.44;100924.66;5098216;27;45461;-63
2022/08/23 06:48:39;;;;;;;;;3.75;3.75;;;;;22.81;61.67;100921.22;5098329;27;45338;-62
2022/08/23 06:51:13;;;;;;;;;4.00;4.00;;;;;22.85;61.86;100915.34;5098211;27;45402;-63
2022/08/23 06:53:38;;;;;;;;;4.00;4.00;;;;;22.81;61.68;100913.94;5096242;27;45503;-62
2022/08/23 06:56:04;;;;;;;;;4.75;3.25;;;;;22.88;61.56;100923.16;5097891;27;45452;-62
2022/08/23 06:58:29;;;;;;;;;4.00;4.00;;;;;22.91;61.62;100924.69;5098084;27;45472;-65
2022/08/23 07:00:54;;;;;;;;;4.50;4.50;;;;;22.94;61.58;100930.69;5098296;27;45573;-66
2022/08/23 07:03:20;;;;;;;;;3.50;3.50;;;;;22.93;61.31;100930.84;5098335;27;46577;-62
2022/08/23 07:05:45;;;;;;;;;4.75;3.50;;;;;22.95;61.69;100932.38;5097899;27;45520;-63
2022/08/23 07:08:11;;;;;;;;;3.25;3.25;;;;;22.97;61.11;100936.78;5097809;27;45345;-60
2022/08/23 07:10:36;;;;;;;;;6.50;4.50;;;;;22.99;61.93;100942.91;5079639;27;45401;-63
2022/08/23 07:13:02;;;;;;;;;4.00;4.00;;;;;23.02;61.82;100937.16;5098009;27;45936;-61
2022/08/23 07:15:28;;;;;;;;;5.25;4.00;;;;;23.07;61.68;100949.25;5097033;27;45359;-65
2022/08/23 07:17:53;;;;;;;;;3.25;3.25;;;;;23.02;61.18;100937.16;5079371;27;45306;-63
2022/08/23 07:20:19;;;;;;;;;3.25;3.00;;;;;23.09;61.58;100949.09;5098383;27;45593;-64
2022/08/23 07:22:44;;;;;;;;;2.00;2.00;;;;;23.10;61.89;100950.78;5097593;27;46054;-65
2022/08/23 07:25:09;;;;;;;;;3.25;3.25;;;;;23.21;61.56;100947.81;5079230;27;45327;-60
2022/08/23 07:27:35;;;;;;;;;6.50;3.50;;;;;23.28;61.71;100959.72;5097878;27;45310;-64
2022/08/23 07:30:01;;;;;;;;;2.00;2.00;;;;;23.44;61.75;100950.88;5097494;27;45228;-62
2022/08/23 07:32:26;;;;;;;;;2.00;2.00;;;;;23.58;61.39;100950.28;5097662;27;45388;-61
2022/08/23 07:34:52;;;;;;;;;5.50;3.00;;;;;23.74;61.20;100954.94;5091550;27;45276;-68
2022/08/23 07:37:17;;;;;;;;;3.25;3.25;;;;;23.89;60.16;100958.75;5059213;28;45427;-65
2022/08/23 07:39:43;;;;;;;;;2.50;2.50;;;;;24.03;60.28;100955.41;5077417;28;45279;-65
2022/08/23 07:42:08;;;;;;;;;3.50;2.25;;;;;24.12;60.06;100959.84;5076937;27;45427;-64
2022/08/23 07:44:34;;;;;;;;;3.00;3.00;;;;;24.15;60.10;100963.25;5077300;28;45497;-61
2022/08/23 07:47:01;;;;;;;;;4.25;3.00;;;;;24.18;59.64;100950.19;5077743;28;45463;-63
2022/08/23 07:49:26;;;;;;;;;3.75;3.75;;;;;24.33;59.12;100964.00;5078121;27;45381;-61
2022/08/23 07:51:52;;;;;;;;;3.75;2.25;;;;;24.35;59.48;100961.97;5077938;27;46156;-62
2022/08/23 07:54:20;;;;;;;;;2.50;2.25;;;;;24.38;59.11;100964.38;5077103;27;45350;-66
2022/08/23 07:56:45;;;;;;;;;3.00;3.00;;;;;24.41;59.60;100969.47;5077289;27;45302;-63
2022/08/23 07:59:11;;;;;;;;;3.25;2.25;;;;;24.49;59.62;100966.78;5076819;28;45501;-59
2022/08/23 08:01:38;;;;;;;;;5.75;4.25;;;;;24.61;59.18;100970.00;5075427;28;45498;-60
2022/08/23 08:04:04;;;;;;;;;2.75;2.75;;;;;24.75;58.67;100971.25;5076853;27;45508;-61
2022/08/23 08:06:38;;;;;;;;;4.75;4.75;;;;;24.84;58.54;100967.50;5077180;28;45325;-62
2022/08/23 08:09:04;;;;;;;;;4.00;4.00;;;;;24.84;58.77;100970.22;5077614;28;45418;-63
2022/08/23 08:11:32;;;;;;;;;5.75;4.00;;;;;24.90;58.26;100969.53;5077581;27;46186;-61
2022/08/23 08:13:58;;;;;;;;;5.00;5.00;;;;;24.91;58.44;100965.81;5077244;28;45514;-61
2022/08/23 08:16:41;;;;;;;;;4.20;3.80;;;;;24.99;58.64;100963.91;5077496;28;45326;-60
2022/08/23 08:19:08;;;;;;;;;2.50;2.50;;;;;25.12;58.56;100963.44;5076560;28;45379;-60
2022/08/23 08:21:34;;;;;;;;;3.50;3.50;;;;;25.23;58.03;100964.94;5076053;28;45441;-62
2022/08/23 08:24:00;;;;;;;;;3.00;3.00;;;;;25.24;57.95;100964.78;5076405;28;45330;-62
2022/08/23 08:26:26;;;;;;;;;5.00;3.25;;;;;25.32;57.61;100968.53;5076322;28;45435;-61
2022/08/23 08:28:55;;;;;;;;;4.50;3.00;;;;;25.34;57.41;100977.38;5058792;28;45586;-62
2022/08/23 08:31:21;;;;;;;;;3.25;3.25;;;;;25.41;57.40;100972.94;5076120;28;46420;-63
2022/08/23 08:33:46;;;;;;;;;2.60;2.60;;;;;25.40;57.54;100966.66;5076097;27;45346;-62
2022/08/23 08:36:30;;;;;;;;;4.75;3.00;;;;;25.61;56.96;100979.69;5076425;27;45498;-61
2022/08/23 08:38:55;;;;;;;;;3.50;3.50;;;;;25.76;56.21;100977.97;5078411;27;45405;-60
2022/08/23 08:41:45;;;;;;;;;2.25;2.25;;;;;25.90;55.96;100980.97;5096702;27;45889;-61
2022/08/23 08:44:33;;;;;;;;;3.60;3.60;;;;;26.08;55.82;100984.34;5046506;27;45286;-61
2022/08/23 08:47:06;;;;;;;;;4.00;4.00;;;;;26.22;55.30;100991.75;5096705;27;45378;-68
2022/08/23 08:49:41;;;;;;;;;4.25;4.25;;;;;26.25;55.14;100994.13;5096562;27;45333;-63
2022/08/23 08:52:15;;;;;;;;;9.00;5.20;;;;;26.29;55.07;100979.09;5096317;27;45341;-61
2022/08/23 08:54:44;;;;;;;;;4.00;2.80;;;;;26.38;54.55;100988.97;5079059;27;45502;-66
2022/08/23 08:57:14;;;;;;;;;7.40;7.20;;;;;26.24;54.30;100977.94;5100270;27;45356;-64
2022/08/23 09:00:26;;;;;;;;;5.00;4.00;;;;;26.37;54.38;100981.81;5099991;27;45331;-61
2022/08/23 09:02:54;;;;;;;;;2.80;2.80;;;;;26.47;53.95;100986.22;5035815;27;45375;-62
2022/08/23 09:05:27;;;;;;;;;3.00;2.00;;;;;26.52;54.17;100995.53;5099792;27;45342;-63
2022/08/23 09:08:08;;;;;;;;;6.60;4.80;;;;;26.37;54.41;100997.34;5100012;27;45405;-62
2022/08/23 09:10:43;;;;;;;;;6.00;4.50;;;;;26.33;54.38;100991.38;5100139;27;45462;-64
2022/08/23 09:13:27;;;;;;;;;5.60;3.80;;;;;26.41;54.39;100995.94;5099631;27;46272;-62
2022/08/23 09:16:07;;;;;;;;;5.60;4.60;;;;;26.60;54.39;100997.38;5099873;27;45302;-63
2022/08/23 09:18:35;;;;;;;;;5.80;5.80;;;;;26.69;53.86;100996.25;5100319;27;45317;-69
2022/08/23 09:21:04;;;;;;;;;3.50;3.00;;;;;26.81;53.91;100988.50;5100457;27;45702;-67
2022/08/23 09:23:37;;;;;;;;;7.80;7.20;;;;;26.85;52.61;100989.88;5099777;27;45342;-66
2022/08/23 09:26:20;;;;;;;;;4.40;4.40;;;;;26.70;53.44;100998.00;5099543;27;45294;-67
2022/08/23 09:28:50;;;;;;;;;5.00;4.00;;;;;26.85;53.57;100995.31;5081433;27;45312;-67
2022/08/23 09:31:36;;;;;;;;;4.60;4.60;;;;;26.93;53.42;100998.81;5100186;27;45375;-65
2022/08/23 09:34:02;;;;;;;;;7.80;5.20;;;;;27.11;52.63;100994.97;5083682;27;45482;-67
2022/08/23 09:36:32;;;;;;;;;4.50;4.50;;;;;27.11;53.18;100992.25;5080721;28;45438;-66
2022/08/23 09:39:06;;;;;;;;;4.20;4.20;;;;;27.07;52.84;100988.16;5079267;28;45326;-67
2022/08/23 09:41:36;;;;;;;;;5.20;5.20;;;;;27.18;52.77;100987.72;5078966;28;45391;-66
2022/08/23 09:44:05;;;;;;;;;5.00;5.00;;;;;27.20;53.09;100991.13;5077321;28;46122;-63
2022/08/23 09:46:34;;;;;;;;;5.00;4.00;;;;;26.92;53.03;100991.66;5077180;28;45375;-64
2022/08/23 09:49:21;;;;;;;;;5.00;4.00;;;;;26.91;53.26;100994.56;5078777;28;45385;-66
2022/08/23 09:51:48;;;;;;;;;5.20;3.40;;;;;27.14;52.86;100990.00;5078768;28;45505;-63
2022/08/23 09:54:31;;;;;;;;;4.20;3.00;;;;;27.37;52.63;100991.84;5078401;28;47106;-62
2022/08/23 09:57:03;;;;;;;;;4.00;4.00;;;;;27.46;52.07;100990.69;5078960;28;45451;-65
2022/08/23 09:59:37;;;;;;;;;6.20;6.20;;;;;27.45;51.79;100992.59;5078932;27;45453;-64
2022/08/23 10:02:03;;;;;;;;;4.60;3.20;;;;;27.50;52.00;100983.84;5078854;28;45349;-65
2022/08/23 10:04:44;;;;;;;;;3.40;3.40;;;;;27.66;50.99;100988.31;5079191;27;46322;-63
2022/08/23 10:07:37;;;;;;;;;5.20;5.00;;;;;27.65;51.42;100986.63;5077697;28;45350;-66
2022/08/23 10:10:16;;;;;;;;;7.00;6.00;;;;;27.58;51.40;100986.47;5078630;28;45395;-67
2022/08/23 10:12:42;;;;;;;;;5.00;5.00;;;;;27.61;52.22;100980.66;5078694;28;45410;-64
2022/08/23 10:15:08;;;;;;;;;4.50;4.50;;;;;27.54;51.38;100985.16;5078345;27;45228;-64
2022/08/23 10:18:04;;;;;;;;;3.40;3.40;;;;;27.52;51.36;100981.78;5077180;28;45262;-64
2022/08/23 10:20:36;;;;;;;;;4.20;4.00;;;;;27.40;51.13;100977.81;5060434;28;45433;-64
2022/08/23 10:23:10;;;;;;;;;3.00;3.00;;;;;27.39;51.85;100976.09;5078518;27;45559;-62
2022/08/23 10:25:44;;;;;;;;;3.00;3.00;;;;;27.44;50.84;100974.50;5077455;27;45430;-66
2022/08/23 10:31:27;;;;;;;;;2.80;2.80;;;;;27.47;51.78;100967.81;5077970;28;45389;-62
2022/08/23 10:34:15;;;;;;;;;2.00;2.00;;;;;27.47;51.92;100965.06;5077955;28;45913;-64
2022/08/23 10:37:11;;;;;;;;;2.80;2.80;;;;;27.47;51.65;100955.00;5061658;28;46171;-66
2022/08/23 10:40:06;;;;;;;;;2.60;2.00;;;;;27.45;51.73;100956.22;5077913;28;45508;-63
2022/08/23 10:42:49;;;;;;;;;3.60;2.80;;;;;27.20;51.63;100920.13;5067346;28;45412;-60
2022/08/23 10:45:15;;;;;;;;;2.20;2.20;;;;;27.51;51.97;100956.34;5076611;28;45381;-60
2022/08/23 10:47:43;;;;;;;;;3.00;3.00;;;;;27.50;51.48;100951.91;5077552;28;46098;-62
2022/08/23 10:50:18;;;;;;;;;2.20;2.20;;;;;27.49;51.28;100946.63;5077487;28;45385;-63
2022/08/23 10:52:56;;;;;;;;;2.00;2.00;;;;;27.54;51.46;100941.44;5077537;28;45425;-63
2022/08/23 10:58:20;;;;;;;;;1.00;0.00;;;;;27.86;49.33;100949.28;5077470;28;45510;-63
2022/08/23 11:00:49;;;;;;;;;3.00;1.40;;;;;27.78;50.23;100951.28;5076787;28;45457;-63
2022/08/23 11:03:17;;;;;;;;;0.60;0.20;;;;;27.85;49.44;100952.19;5077564;28;45255;-62
2022/08/23 11:05:42;;;;;;;;;1.00;1.00;;;;;27.97;48.91;100947.94;5078248;28;45535;-67
2022/08/23 11:08:11;;;;;;;;;0.50;0.50;;;;;28.06;48.99;100940.50;5078660;28;45308;-63
2022/08/23 11:10:36;;;;;;;;;1.00;1.00;;;;;28.14;47.92;100941.25;5059503;28;45482;-67
2022/08/23 11:13:33;;;;;;;;;0.50;0.50;;;;;28.25;48.12;100939.03;5078132;28;45357;-60
2022/08/23 11:16:27;;;;;;;;;0.40;0.40;;;;;28.33;47.34;100936.22;5077401;28;45400;-63
2022/08/23 11:18:53;;;;;;;;;3.40;1.00;;;;;28.35;47.86;100939.59;5076911;28;45461;-63
2022/08/23 11:21:18;;;;;;;;;0.25;0.25;;;;;28.45;47.01;100945.59;5077495;28;45453;-61
2022/08/23 11:24:13;;;;;;;;;0.75;0.75;;;;;28.59;46.69;100936.50;5059519;28;45363;-65
2022/08/23 11:26:40;;;;;;;;;2.40;2.20;;;;;28.69;46.58;100931.53;5078016;28;45421;-64
2022/08/23 11:29:05;;;;;;;;;1.00;1.00;;;;;28.78;45.92;100935.00;5077556;28;45229;-64
2022/08/23 11:31:36;;;;;;;;;1.50;1.50;;;;;28.79;46.49;100932.06;5077419;28;45302;-60
2022/08/23 11:34:03;;;;;;;;;1.00;1.00;;;;;28.83;46.24;100932.50;5077624;27;45404;-61
2022/08/23 11:36:30;;;;;;;;;1.20;1.20;;;;;28.72;46.34;100931.16;5096664;27;45334;-60
2022/08/23 11:38:56;;;;;;;;;1.00;1.00;;;;;28.62;46.40;100938.84;5097627;27;46443;-62
2022/08/23 11:41:26;;;;;;;;;1.00;0.00;;;;;28.71;46.33;100929.47;5079205;27;45341;-62
2022/08/23 11:43:54;;;;;;;;;1.00;1.00;;;;;28.90;45.53;100938.06;5078485;27;45490;-60
2022/08/23 11:46:25;;;;;;;;;0.00;0.00;;;;;29.13;45.19;100933.22;5097312;27;45431;-62
2022/08/23 11:49:15;;;;;;;;;1.00;1.00;;;;;29.10;45.03;100941.84;5096644;27;45903;-64